Time;durP1;ratioP1;P1;durP2;ratioP2;P2;SDS_P1;SDS_P2;PMS_P1;PMS_P2;Temp;Humidity;BMP_temperature;BMP_pressure;BME280_temperature;BME280_humidity;BME280_pressure;Samples;Min_cycle;Max_cycle;Signal;HPM_P1;HPM_P2
2024/02/14 00:01:36;;;;;;;16.30;8.70;;;;;;;3.67;72.41;99513.37;105878;1255;96517;-74
2024/02/14 00:04:07;;;;;;;18.00;9.90;;;;;;;3.66;72.51;99514.45;106082;1253;109892;-74
2024/02/14 00:06:36;;;;;;;18.70;9.70;;;;;;;3.65;72.42;99511.69;105807;1255;96596;-74
2024/02/14 00:09:04;;;;;;;15.00;8.10;;;;;;;3.69;72.37;99514.69;107241;1252;107664;-75
2024/02/14 00:11:32;;;;;;;16.80;8.60;;;;;;;3.71;72.38;99511.98;105213;1254;97393;-74
2024/02/14 00:14:00;;;;;;;18.30;9.90;;;;;;;3.69;72.30;99514.14;106399;1252;96528;-74
2024/02/14 00:17:00;;;;;;;17.50;9.30;;;;;;;3.70;72.45;99516.77;105148;1254;109658;-74
2024/02/14 00:19:28;;;;;;;16.90;9.60;;;;;;;3.67;72.45;99516.17;105942;1256;96505;-75
2024/02/14 00:21:56;;;;;;;16.40;8.70;;;;;;;3.63;72.53;99520.70;105768;1253;107203;-76
2024/02/14 00:24:26;;;;;;;19.90;8.70;;;;;;;3.63;72.41;99524.73;106544;1253;96731;-74
2024/02/14 00:26:55;;;;;;;16.90;8.90;;;;;;;3.64;72.52;99526.11;106078;1255;96502;-74
2024/02/14 00:29:26;;;;;;;15.50;9.00;;;;;;;3.64;72.34;99527.50;106180;1255;109369;-75
2024/02/14 00:31:54;;;;;;;19.20;9.50;;;;;;;3.65;72.57;99528.71;105260;1256;96690;-74
2024/02/14 00:34:22;;;;;;;18.40;9.50;;;;;;;3.66;72.67;99527.95;105934;1254;107708;-74
2024/02/14 00:36:50;;;;;;;12.00;7.70;;;;;;;3.66;72.79;99530.42;107817;1252;96611;-74
2024/02/14 00:39:18;;;;;;;17.90;9.20;;;;;;;3.68;72.75;99530.16;105875;1254;96501;-73
2024/02/14 00:41:47;;;;;;;15.60;8.90;;;;;;;3.69;72.61;99531.88;106095;1254;109897;-73
2024/02/14 00:44:16;;;;;;;13.90;8.70;;;;;;;3.70;72.58;99531.66;105730;1256;96706;-75
2024/02/14 00:46:44;;;;;;;15.60;8.20;;;;;;;3.72;72.89;99533.15;105738;1256;107716;-74
2024/02/14 00:49:13;;;;;;;16.00;8.10;;;;;;;3.72;72.74;99536.16;106197;1253;96604;-75
2024/02/14 00:51:41;;;;;;;14.70;8.10;;;;;;;3.72;72.75;99530.88;105719;1256;96732;-74
2024/02/14 00:54:09;;;;;;;16.80;8.90;;;;;;;3.75;72.91;99530.44;105680;1254;109729;-75
2024/02/14 00:56:37;;;;;;;19.20;9.00;;;;;;;3.76;72.90;99532.68;105577;1255;97535;-75
2024/02/14 00:59:05;;;;;;;14.90;9.20;;;;;;;3.75;72.91;99535.02;105503;1254;107606;-75
2024/02/14 01:01:34;;;;;;;18.20;8.80;;;;;;;3.72;73.04;99538.59;105681;1252;96508;-74
2024/02/14 01:04:02;;;;;;;18.30;9.00;;;;;;;3.72;73.10;99536.84;105525;1253;96606;-75
2024/02/14 01:06:31;;;;;;;21.20;8.10;;;;;;;3.74;73.35;99539.42;108069;1252;110246;-73
2024/02/14 01:08:59;;;;;;;19.30;9.20;;;;;;;3.73;72.87;99539.60;105515;1253;96609;-74
2024/02/14 01:11:28;;;;;;;14.50;7.50;;;;;;;3.73;72.92;99539.45;105282;1254;107077;-74
2024/02/14 01:13:56;;;;;;;14.50;8.00;;;;;;;3.76;73.18;99541.98;108451;1253;95013;-75
2024/02/14 01:16:25;;;;;;;17.00;7.50;;;;;;;3.77;73.06;99545.82;105554;1252;96585;-75
2024/02/14 01:18:53;;;;;;;13.10;7.20;;;;;;;3.75;73.21;99543.07;107945;1252;109598;-74
2024/02/14 01:21:22;;;;;;;15.30;6.90;;;;;;;3.75;72.96;99541.68;105642;1255;97820;-74
2024/02/14 01:23:49;;;;;;;13.70;7.40;;;;;;;3.75;73.13;99538.84;105587;1256;107631;-74
2024/02/14 01:26:17;;;;;;;11.40;6.20;;;;;;;3.73;73.24;99535.93;107896;1252;96587;-76
2024/02/14 01:28:45;;;;;;;15.40;7.10;;;;;;;3.72;73.20;99537.36;106044;1252;96500;-75
2024/02/14 01:31:13;;;;;;;12.80;7.00;;;;;;;3.72;73.16;99538.80;105329;1257;109890;-74
2024/02/14 01:33:41;;;;;;;14.20;5.90;;;;;;;3.73;73.14;99540.86;105923;1255;96709;-75
2024/02/14 01:36:09;;;;;;;10.90;6.30;;;;;;;3.75;73.45;99539.92;105471;1253;107628;-75
2024/02/14 01:38:37;;;;;;;11.30;6.40;;;;;;;3.75;73.26;99543.94;107064;1252;96676;-75
2024/02/14 01:41:05;;;;;;;13.70;6.90;;;;;;;3.77;73.15;99545.44;105387;1254;96600;-75
2024/02/14 01:43:33;;;;;;;12.00;7.10;;;;;;;3.79;72.99;99546.42;105637;1255;109677;-74
2024/02/14 01:46:10;;;;;;;9.70;5.70;;;;;;;3.79;72.98;99546.94;105666;1252;96598;-75
2024/02/14 01:48:40;;;;;;;13.00;5.40;;;;;;;3.79;73.26;99545.19;105514;1252;107605;-77
2024/02/14 01:51:11;;;;;;;9.60;5.70;;;;;;;3.81;73.14;99544.25;105789;1257;96607;-75
2024/02/14 01:53:40;;;;;;;9.80;5.20;;;;;;;3.83;73.04;99545.58;105665;1257;96588;-74
2024/02/14 01:56:07;;;;;;;12.10;5.20;;;;;;;3.85;73.06;99549.20;107313;1250;109980;-74
2024/02/14 01:58:37;;;;;;;8.70;4.90;;;;;;;3.84;73.25;99552.55;105432;1258;96390;-73
2024/02/14 02:01:05;;;;;;;9.10;5.50;;;;;;;3.87;72.89;99550.53;106152;1252;106274;-74
2024/02/14 02:03:36;;;;;;;12.90;5.70;;;;;;;3.87;73.23;99553.99;107292;1255;96579;-75
2024/02/14 02:06:06;;;;;;;9.10;4.50;;;;;;;3.84;73.18;99555.03;106063;1253;96613;-75
2024/02/14 02:08:35;;;;;;;11.50;5.90;;;;;;;3.82;72.82;99556.67;105946;1255;109986;-74
2024/02/14 02:11:03;;;;;;;8.00;5.30;;;;;;;3.81;72.97;99558.83;108524;1252;95286;-75
2024/02/14 02:13:31;;;;;;;11.50;5.50;;;;;;;3.81;73.01;99560.20;106433;1253;107061;-74
2024/02/14 02:16:04;;;;;;;10.20;5.50;;;;;;;3.82;72.87;99561.92;105631;1256;96645;-75
2024/02/14 02:18:32;;;;;;;11.60;6.10;;;;;;;3.83;72.99;99563.13;105745;1255;97657;-75
2024/02/14 02:21:03;;;;;;;9.20;5.40;;;;;;;3.83;73.01;99566.45;107658;1252;109435;-74
2024/02/14 02:23:32;;;;;;;9.00;5.80;;;;;;;3.84;72.72;99566.25;105729;1260;96610;-75
2024/02/14 02:26:02;;;;;;;11.10;6.10;;;;;;;3.84;73.01;99567.30;106203;1252;107051;-74
2024/02/14 02:28:29;;;;;;;8.70;5.50;;;;;;;3.85;72.75;99567.62;106104;1255;96623;-74
2024/02/14 02:30:57;;;;;;;11.10;5.70;;;;;;;3.86;72.99;99570.39;105830;1252;97765;-74
2024/02/14 02:33:26;;;;;;;11.40;5.40;;;;;;;3.85;72.96;99574.47;107830;1254;110924;-75
2024/02/14 02:35:54;;;;;;;11.80;5.90;;;;;;;3.84;72.87;99578.52;105507;1253;96619;-75
2024/02/14 02:38:23;;;;;;;11.00;5.50;;;;;;;3.84;72.93;99580.48;107534;1252;107686;-75
2024/02/14 02:40:51;;;;;;;9.50;6.00;;;;;;;3.85;72.80;99581.12;106508;1252;96639;-75
2024/02/14 02:43:19;;;;;;;10.00;5.10;;;;;;;3.86;72.97;99579.17;105949;1252;96606;-74
2024/02/14 02:45:47;;;;;;;11.00;6.00;;;;;;;3.84;72.87;99581.33;105650;1255;110457;-74
2024/02/14 02:48:15;;;;;;;10.20;5.80;;;;;;;3.80;72.82;99582.34;105487;1255;97436;-75
2024/02/14 02:50:44;;;;;;;16.30;5.90;;;;;;;3.80;72.88;99589.20;106103;1255;107590;-75
2024/02/14 02:53:12;;;;;;;12.10;6.60;;;;;;;3.80;72.86;99587.27;108445;1252;95102;-73
2024/02/14 02:55:41;;;;;;;11.20;5.30;;;;;;;3.78;72.85;99588.05;105927;1253;96500;-75
2024/02/14 02:58:10;;;;;;;13.10;6.10;;;;;;;3.78;72.83;99584.89;106097;1252;109940;-74
2024/02/14 03:00:37;;;;;;;10.70;5.70;;;;;;;3.79;72.70;99585.92;105507;1254;96578;-74
2024/02/14 03:03:08;;;;;;;14.60;6.30;;;;;;;3.81;72.84;99586.02;106964;1252;107163;-77
2024/02/14 03:05:36;;;;;;;11.30;5.80;;;;;;;3.83;72.83;99589.80;106604;1252;96675;-75
2024/02/14 03:08:04;;;;;;;12.10;6.20;;;;;;;3.84;72.84;99587.11;106027;1252;96528;-75
2024/02/14 03:10:32;;;;;;;10.40;6.10;;;;;;;3.84;72.89;99591.15;105884;1255;109362;-75
2024/02/14 03:13:00;;;;;;;10.20;5.80;;;;;;;3.82;72.57;99592.98;105701;1253;96594;-74
2024/02/14 03:15:28;;;;;;;11.00;5.90;;;;;;;3.82;72.72;99593.52;105846;1253;107687;-75
2024/02/14 03:17:56;;;;;;;12.40;5.70;;;;;;;3.83;72.78;99598.56;105823;1253;96636;-76
2024/02/14 03:20:24;;;;;;;14.70;5.90;;;;;;;3.84;72.76;99598.54;106301;1252;96670;-75
2024/02/14 03:22:53;;;;;;;11.80;6.00;;;;;;;3.85;72.76;99599.38;105726;1255;109498;-75
2024/02/14 03:25:23;;;;;;;8.50;5.40;;;;;;;3.84;73.02;99601.51;106073;1252;97378;-75
2024/02/14 03:27:52;;;;;;;10.80;5.30;;;;;;;3.81;72.83;99602.67;105845;1256;107413;-74
2024/02/14 03:30:22;;;;;;;14.30;6.40;;;;;;;3.78;72.82;99598.92;105713;1252;96582;-75
2024/02/14 03:32:51;;;;;;;11.60;5.80;;;;;;;3.77;72.74;99601.59;106372;1252;96608;-74
2024/02/14 03:35:21;;;;;;;13.30;6.00;;;;;;;3.78;72.85;99607.69;105596;1255;109979;-75
2024/02/14 03:37:52;;;;;;;12.00;6.10;;;;;;;3.76;72.69;99611.10;105414;1255;97936;-75
2024/02/14 03:40:21;;;;;;;10.10;5.60;;;;;;;3.76;72.83;99614.25;106193;1252;107699;-75
2024/02/14 03:42:49;;;;;;;9.10;5.20;;;;;;;3.77;72.73;99615.44;105646;1255;96617;-74
2024/02/14 03:45:16;;;;;;;11.40;5.40;;;;;;;3.77;72.91;99614.76;105345;1257;96647;-75
2024/02/14 03:47:44;;;;;;;13.50;6.10;;;;;;;3.78;72.93;99618.55;106300;1252;109446;-74
2024/02/14 03:50:12;;;;;;;9.90;5.20;;;;;;;3.78;72.92;99618.05;105150;1253;97619;-75
2024/02/14 03:52:42;;;;;;;9.80;5.30;;;;;;;3.79;73.02;99619.77;105600;1255;107497;-75
2024/02/14 03:55:13;;;;;;;12.30;6.30;;;;;;;3.77;72.87;99617.54;105846;1257;96619;-73
2024/02/14 03:57:41;;;;;;;12.30;5.80;;;;;;;3.77;72.87;99618.95;106180;1254;96534;-75
2024/02/14 04:00:11;;;;;;;11.50;5.80;;;;;;;3.78;72.74;99622.63;105355;1256;110092;-74
2024/02/14 04:02:39;;;;;;;11.60;5.90;;;;;;;3.77;72.96;99620.00;106662;1253;96699;-72
2024/02/14 04:05:08;;;;;;;11.30;5.40;;;;;;;3.77;73.01;99619.66;105662;1255;107158;-75
2024/02/14 04:07:37;;;;;;;10.60;5.40;;;;;;;3.77;72.95;99620.36;106053;1252;96671;-73
2024/02/14 04:10:06;;;;;;;12.00;6.10;;;;;;;3.79;72.90;99622.58;106555;1255;97907;-76
2024/02/14 04:12:34;;;;;;;14.70;6.40;;;;;;;3.77;72.88;99622.11;105752;1255;109957;-73
2024/02/14 04:15:03;;;;;;;14.60;5.80;;;;;;;3.73;72.90;99622.41;105477;1255;96592;-74
2024/02/14 04:17:31;;;;;;;10.80;5.10;;;;;;;3.69;72.99;99626.05;108443;1252;107626;-73
2024/02/14 04:19:59;;;;;;;14.20;6.00;;;;;;;3.68;72.80;99627.66;106073;1255;96621;-74
2024/02/14 04:22:27;;;;;;;9.90;5.20;;;;;;;3.67;72.90;99632.98;107506;1250;96597;-75
2024/02/14 04:24:56;;;;;;;12.90;6.70;;;;;;;3.68;72.75;99634.17;105380;1253;108865;-75
2024/02/14 04:27:24;;;;;;;12.40;5.90;;;;;;;3.68;72.89;99632.76;105684;1252;96574;-76
2024/02/14 04:29:51;;;;;;;10.90;6.10;;;;;;;3.68;72.68;99632.23;105354;1258;106699;-73
2024/02/14 04:32:19;;;;;;;13.10;6.50;;;;;;;3.69;72.72;99632.54;106112;1252;96614;-74
2024/02/14 04:34:48;;;;;;;11.80;7.00;;;;;;;3.70;72.91;99632.71;105466;1252;97951;-73
2024/02/14 04:37:18;;;;;;;9.00;6.00;;;;;;;3.70;73.03;99633.91;107067;1252;109961;-75
2024/02/14 04:39:46;;;;;;;14.70;7.60;;;;;;;3.71;72.80;99634.95;105715;1257;96590;-74
2024/02/14 04:42:14;;;;;;;13.30;6.20;;;;;;;3.71;73.04;99640.74;105668;1256;107272;-75
2024/02/14 04:44:42;;;;;;;10.20;5.40;;;;;;;3.70;72.97;99639.88;105715;1258;96590;-75
2024/02/14 04:47:10;;;;;;;11.40;5.80;;;;;;;3.70;73.03;99636.89;106711;1252;96578;-74
2024/02/14 04:49:38;;;;;;;12.20;7.30;;;;;;;3.72;72.93;99642.46;105553;1255;109950;-75
2024/02/14 04:52:07;;;;;;;11.80;6.20;;;;;;;3.72;72.99;99641.23;108377;1252;95407;-75
2024/02/14 04:54:35;;;;;;;15.90;7.00;;;;;;;3.71;72.78;99644.76;108109;1252;107540;-76
2024/02/14 04:57:04;;;;;;;10.00;5.90;;;;;;;3.69;72.88;99645.89;106633;1255;97190;-74
2024/02/14 04:59:32;;;;;;;22.50;12.00;;;;;;;3.68;72.78;99647.66;105391;1255;96603;-74
2024/02/14 05:02:00;;;;;;;23.90;15.40;;;;;;;3.70;72.80;99649.55;106143;1251;109466;-73
2024/02/14 05:04:29;;;;;;;30.50;19.20;;;;;;;3.72;73.00;99655.77;106083;1253;97535;-72
2024/02/14 05:06:57;;;;;;;28.40;14.40;;;;;;;3.72;72.91;99655.08;107972;1252;107293;-72
2024/02/14 05:09:26;;;;;;;14.10;9.00;;;;;;;3.71;72.96;99655.64;108260;1251;94920;-73
2024/02/14 05:11:54;;;;;;;11.90;7.40;;;;;;;3.72;72.87;99654.20;105321;1256;96598;-72
2024/02/14 05:14:22;;;;;;;12.40;7.30;;;;;;;3.72;73.01;99657.52;105587;1257;110014;-73
2024/02/14 05:16:51;;;;;;;13.50;6.60;;;;;;;3.73;72.86;99655.74;106317;1252;97348;-74
2024/02/14 05:19:21;;;;;;;11.40;7.00;;;;;;;3.72;73.03;99657.16;106244;1255;105958;-78
2024/02/14 05:21:49;;;;;;;13.40;6.80;;;;;;;3.74;73.09;99663.78;105581;1256;96579;-78
2024/02/14 05:24:17;;;;;;;15.30;7.20;;;;;;;3.73;72.82;99662.58;105743;1253;97096;-78
2024/02/14 05:26:45;;;;;;;16.60;8.60;;;;;;;3.75;73.07;99660.09;106572;1255;109882;-79
2024/02/14 05:29:13;;;;;;;18.20;9.70;;;;;;;3.75;73.10;99661.64;106807;1253;96609;-78
2024/02/14 05:31:46;;;;;;;18.10;9.70;;;;;;;3.75;73.10;99662.88;105639;1255;107606;-79
2024/02/14 05:34:14;;;;;;;15.70;9.30;;;;;;;3.74;73.01;99665.00;105704;1253;97560;-78
2024/02/14 05:36:42;;;;;;;16.80;8.70;;;;;;;3.74;73.05;99660.28;105820;1253;96665;-80
2024/02/14 05:39:10;;;;;;;17.70;9.20;;;;;;;3.73;73.10;99663.83;108582;1252;110330;-77
2024/02/14 05:41:38;;;;;;;20.00;9.90;;;;;;;3.72;73.08;99667.36;106057;1255;96512;-77
2024/02/14 05:44:06;;;;;;;19.50;11.00;;;;;;;3.72;72.91;99666.83;105789;1256;107660;-78
2024/02/14 05:46:34;;;;;;;21.00;10.30;;;;;;;3.73;73.07;99667.86;105629;1253;97895;-79
2024/02/14 05:49:02;;;;;;;19.10;10.60;;;;;;;3.74;73.01;99673.07;106231;1255;96593;-77
2024/02/14 05:51:30;;;;;;;18.70;10.60;;;;;;;3.75;73.04;99678.30;106690;1252;110268;-79
2024/02/14 05:53:59;;;;;;;20.70;9.50;;;;;;;3.76;73.01;99675.48;105889;1253;96597;-79
2024/02/14 05:56:28;;;;;;;18.70;10.00;;;;;;;3.76;73.12;99677.58;107046;1252;107622;-76
2024/02/14 05:58:56;;;;;;;17.50;9.20;;;;;;;3.77;73.09;99678.61;105600;1255;96602;-78
2024/02/14 06:01:24;;;;;;;12.20;7.90;;;;;;;3.78;73.05;99681.21;105276;1255;96601;-76
2024/02/14 06:03:52;;;;;;;14.90;8.20;;;;;;;3.79;72.94;99682.58;105584;1255;109811;-72
2024/02/14 06:06:20;;;;;;;16.20;8.10;;;;;;;3.78;73.15;99686.61;105968;1252;96506;-74
2024/02/14 06:08:48;;;;;;;16.60;8.30;;;;;;;3.79;73.12;99691.17;105250;1255;107576;-74
2024/02/14 06:11:16;;;;;;;18.30;9.40;;;;;;;3.80;73.25;99690.26;105671;1253;96634;-74
2024/02/14 06:13:44;;;;;;;13.40;7.70;;;;;;;3.79;72.98;99690.27;106860;1254;97269;-74
2024/02/14 06:16:12;;;;;;;15.90;8.90;;;;;;;3.79;73.22;99692.94;107115;1255;109905;-74
2024/02/14 06:18:40;;;;;;;13.50;7.30;;;;;;;3.80;73.23;99696.20;105301;1255;97797;-76
2024/02/14 06:21:08;;;;;;;18.30;9.70;;;;;;;3.82;73.32;99698.96;106680;1253;107597;-74
2024/02/14 06:23:37;;;;;;;18.70;9.00;;;;;;;3.82;73.07;99699.47;107064;1253;96602;-74
2024/02/14 06:26:06;;;;;;;13.20;7.30;;;;;;;3.83;73.28;99701.39;108505;1252;94484;-75
2024/02/14 06:28:33;;;;;;;14.60;8.00;;;;;;;3.82;73.08;99699.46;107031;1252;111189;-74
2024/02/14 06:31:02;;;;;;;16.70;7.70;;;;;;;3.81;73.10;99700.55;105810;1254;96605;-75
2024/02/14 06:33:30;;;;;;;13.00;7.50;;;;;;;3.82;73.17;99702.81;105857;1251;107619;-75
2024/02/14 06:35:58;;;;;;;16.20;6.90;;;;;;;3.83;73.28;99708.38;105781;1254;96672;-74
2024/02/14 06:38:26;;;;;;;17.30;7.90;;;;;;;3.86;73.28;99708.10;105806;1252;96514;-75
2024/02/14 06:40:54;;;;;;;18.20;7.10;;;;;;;3.86;73.20;99703.55;105416;1252;107823;-74
2024/02/14 06:43:22;;;;;;;12.60;6.60;;;;;;;3.87;73.05;99708.23;105239;1251;96653;-75
2024/02/14 06:45:49;;;;;;;16.70;7.30;;;;;;;3.89;73.24;99709.06;105226;1268;107211;-76
2024/02/14 06:48:21;;;;;;;15.20;7.00;;;;;;;3.89;73.21;99710.64;108347;1252;95145;-74
2024/02/14 06:50:52;;;;;;;12.80;7.00;;;;;;;3.88;73.31;99709.24;105567;1253;97493;-75
2024/02/14 06:53:20;;;;;;;15.80;7.60;;;;;;;3.87;73.21;99710.16;105408;1256;108555;-75
2024/02/14 06:55:48;;;;;;;13.50;7.10;;;;;;;3.90;73.30;99709.90;105685;1256;96576;-75
2024/02/14 06:58:16;;;;;;;14.90;7.50;;;;;;;3.92;73.33;99715.46;108043;1252;107559;-75
2024/02/14 07:00:44;;;;;;;12.90;7.30;;;;;;;3.93;73.36;99719.28;105464;1254;97826;-74
2024/02/14 07:03:12;;;;;;;17.10;7.00;;;;;;;3.93;73.50;99722.24;106274;1252;97925;-75
2024/02/14 07:05:41;;;;;;;14.80;7.90;;;;;;;3.94;73.32;99720.29;105729;1255;109917;-76
2024/02/14 07:08:09;;;;;;;15.20;7.80;;;;;;;3.94;73.52;99720.11;105573;1254;96578;-74
2024/02/14 07:10:37;;;;;;;15.00;8.20;;;;;;;3.96;73.49;99724.08;107728;1252;107743;-74
2024/02/14 07:13:05;;;;;;;13.90;7.40;;;;;;;3.99;73.44;99721.87;106593;1253;96668;-75
2024/02/14 07:15:33;;;;;;;12.60;7.50;;;;;;;4.02;73.43;99721.95;106900;1255;96591;-74
2024/02/14 07:18:02;;;;;;;17.20;9.10;;;;;;;4.03;73.39;99718.59;105734;1255;109676;-74
2024/02/14 07:20:30;;;;;;;16.90;9.60;;;;;;;4.06;73.42;99719.34;107822;1253;95647;-75
2024/02/14 07:22:58;;;;;;;14.40;7.90;;;;;;;4.09;73.40;99720.14;105385;1266;107775;-75
2024/02/14 07:25:26;;;;;;;17.20;8.20;;;;;;;4.10;73.31;99722.73;106264;1255;96599;-75
2024/02/14 07:27:54;;;;;;;14.90;8.10;;;;;;;4.10;73.37;99719.91;105733;1255;96585;-75
2024/02/14 07:30:22;;;;;;;17.80;7.60;;;;;;;4.09;73.51;99721.17;105535;1258;109882;-75
2024/02/14 07:32:50;;;;;;;16.00;8.50;;;;;;;4.10;73.60;99722.36;105702;1256;97274;-75
2024/02/14 07:35:19;;;;;;;16.40;9.20;;;;;;;4.12;73.66;99717.89;106257;1255;107611;-74
2024/02/14 07:37:48;;;;;;;18.20;8.30;;;;;;;4.15;73.54;99722.17;105732;1255;96661;-75
2024/02/14 07:40:16;;;;;;;18.80;8.00;;;;;;;4.19;73.60;99723.46;106531;1255;96533;-75
2024/02/14 07:42:45;;;;;;;21.50;9.30;;;;;;;4.21;73.57;99724.80;106123;1255;109260;-75
2024/02/14 07:45:13;;;;;;;18.60;10.00;;;;;;;4.25;73.60;99726.42;105429;1255;96624;-76
2024/02/14 07:47:41;;;;;;;17.30;9.90;;;;;;;4.28;73.63;99728.05;106465;1250;107590;-76
2024/02/14 07:50:10;;;;;;;24.20;12.70;;;;;;;4.29;73.53;99730.14;105622;1255;96578;-76
2024/02/14 07:52:44;;;;;;;19.80;10.20;;;;;;;4.29;73.61;99729.39;106304;1255;96772;-75
2024/02/14 07:55:13;;;;;;;22.60;11.70;;;;;;;4.32;73.62;99731.95;105697;1253;109556;-76
2024/02/14 07:57:41;;;;;;;16.30;9.20;;;;;;;4.34;73.64;99729.93;106959;1255;96611;-75
2024/02/14 08:00:10;;;;;;;16.10;9.20;;;;;;;4.38;73.58;99730.52;108518;1252;108324;-75
2024/02/14 08:02:38;;;;;;;24.70;13.30;;;;;;;4.39;73.58;99728.73;107142;1253;96592;-75
2024/02/14 08:05:06;;;;;;;19.60;10.30;;;;;;;4.42;73.68;99727.05;106131;1254;97013;-76
2024/02/14 08:07:34;;;;;;;17.70;9.20;;;;;;;4.46;73.56;99731.45;106751;1252;109875;-75
2024/02/14 08:10:02;;;;;;;16.70;8.80;;;;;;;4.48;73.63;99731.20;106030;1253;96638;-75
2024/02/14 08:12:30;;;;;;;16.90;9.60;;;;;;;4.51;73.64;99732.33;105456;1256;106644;-74
2024/02/14 08:14:58;;;;;;;15.50;9.80;;;;;;;4.55;73.59;99736.55;105455;1256;96716;-75
2024/02/14 08:17:26;;;;;;;16.20;9.30;;;;;;;4.57;73.69;99736.12;106922;1255;97156;-76
2024/02/14 08:19:54;;;;;;;15.00;9.80;;;;;;;4.63;73.73;99738.89;105808;1253;109323;-76
2024/02/14 08:22:22;;;;;;;15.60;8.20;;;;;;;4.71;73.76;99740.73;107051;1253;96594;-74
2024/02/14 08:24:50;;;;;;;16.20;10.10;;;;;;;4.73;73.60;99742.05;108034;1255;107098;-75
2024/02/14 08:27:18;;;;;;;18.00;9.10;;;;;;;4.71;73.62;99741.40;105612;1259;96589;-74
2024/02/14 08:29:46;;;;;;;15.80;9.00;;;;;;;4.75;73.66;99741.78;105784;1255;96616;-75
2024/02/14 08:32:14;;;;;;;15.60;8.00;;;;;;;4.83;73.79;99742.21;105611;1255;110419;-74
2024/02/14 08:34:42;;;;;;;20.60;9.20;;;;;;;4.87;73.60;99742.23;105708;1255;96543;-75
2024/02/14 08:37:10;;;;;;;17.70;9.20;;;;;;;4.89;73.60;99739.16;106048;1255;106821;-75
2024/02/14 08:39:38;;;;;;;14.30;8.40;;;;;;;4.91;73.55;99743.30;105737;1256;96674;-74
2024/02/14 08:42:07;;;;;;;17.30;10.00;;;;;;;4.99;73.67;99745.63;105256;1256;96593;-76
2024/02/14 08:44:37;;;;;;;17.70;9.10;;;;;;;5.06;73.62;99741.68;105510;1255;109920;-75
2024/02/14 08:47:06;;;;;;;16.20;7.70;;;;;;;5.11;73.58;99741.65;105318;1253;96626;-75
2024/02/14 08:49:34;;;;;;;11.60;6.80;;;;;;;5.14;73.68;99741.69;105529;1256;107724;-75
2024/02/14 08:52:03;;;;;;;13.60;7.40;;;;;;;5.19;73.55;99742.55;105690;1255;96598;-75
2024/02/14 08:54:32;;;;;;;13.10;7.60;;;;;;;5.26;73.71;99740.36;105262;1253;96628;-73
2024/02/14 08:57:00;;;;;;;15.90;9.10;;;;;;;5.33;73.63;99737.09;106225;1254;109703;-74
2024/02/14 08:59:28;;;;;;;13.80;7.50;;;;;;;5.37;73.62;99741.32;106627;1253;96642;-76
2024/02/14 09:01:56;;;;;;;16.40;8.70;;;;;;;5.38;73.68;99739.73;105889;1252;105622;-75
2024/02/14 09:04:24;;;;;;;17.00;7.90;;;;;;;5.41;73.65;99744.70;105372;1253;97545;-75
2024/02/14 09:06:52;;;;;;;10.70;6.50;;;;;;;5.44;73.76;99742.98;105764;1255;97198;-75
2024/02/14 09:09:20;;;;;;;16.00;7.60;;;;;;;5.48;73.64;99744.06;105457;1253;108436;-73
2024/02/14 09:11:48;;;;;;;11.60;6.50;;;;;;;5.47;73.57;99744.27;105646;1255;97324;-75
2024/02/14 09:14:16;;;;;;;9.70;6.20;;;;;;;5.49;73.57;99740.34;105901;1255;107642;-75
2024/02/14 09:16:45;;;;;;;11.00;6.70;;;;;;;5.51;73.53;99738.82;105187;1256;96613;-75
2024/02/14 09:19:13;;;;;;;12.70;6.20;;;;;;;5.54;73.43;99745.23;106057;1256;96533;-74
2024/02/14 09:21:41;;;;;;;12.60;7.00;;;;;;;5.56;73.52;99746.20;106998;1255;109677;-73
2024/02/14 09:24:09;;;;;;;11.90;6.10;;;;;;;5.59;73.47;99745.70;106006;1253;96584;-75
2024/02/14 09:26:38;;;;;;;10.80;6.50;;;;;;;5.64;73.50;99751.51;105951;1255;108307;-75
2024/02/14 09:29:06;;;;;;;12.50;6.40;;;;;;;5.69;73.30;99752.69;108522;1252;94825;-74
2024/02/14 09:31:34;;;;;;;9.50;5.50;;;;;;;5.71;73.47;99753.11;106308;1255;97791;-75
2024/02/14 09:34:01;;;;;;;14.30;6.80;;;;;;;5.75;73.34;99751.54;105610;1255;109369;-75
2024/02/14 09:36:30;;;;;;;14.20;6.20;;;;;;;5.77;73.37;99751.32;106055;1255;96616;-74
2024/02/14 09:38:59;;;;;;;10.00;5.60;;;;;;;5.83;73.38;99754.05;105128;1253;106863;-75
2024/02/14 09:41:37;;;;;;;13.70;6.20;;;;;;;5.88;73.25;99755.80;105531;1253;96576;-76
2024/02/14 09:44:05;;;;;;;10.60;5.50;;;;;;;5.91;73.31;99753.02;105583;1258;96951;-76
2024/02/14 09:46:35;;;;;;;9.00;5.00;;;;;;;5.95;73.11;99755.85;106891;1253;110351;-74
2024/02/14 09:49:05;;;;;;;9.10;5.20;;;;;;;5.94;73.08;99757.78;106319;1255;96575;-75
2024/02/14 09:51:34;;;;;;;9.80;5.10;;;;;;;5.95;72.91;99753.21;105483;1268;107283;-75
2024/02/14 09:54:03;;;;;;;6.80;3.90;;;;;;;5.99;72.91;99751.27;106700;1254;96745;-76
2024/02/14 09:56:32;;;;;;;7.50;3.70;;;;;;;6.03;72.93;99755.88;105914;1256;96533;-75
2024/02/14 09:59:02;;;;;;;4.60;2.60;;;;;;;6.06;72.76;99752.23;105637;1257;110158;-76
2024/02/14 10:01:31;;;;;;;4.40;2.60;;;;;;;6.08;72.54;99748.09;105602;1253;96643;-76
2024/02/14 10:03:59;;;;;;;5.00;2.90;;;;;;;6.10;72.57;99745.19;107112;1255;106582;-76
2024/02/14 10:06:27;;;;;;;5.30;3.10;;;;;;;6.09;72.03;99742.76;105425;1256;97531;-76
2024/02/14 10:08:56;;;;;;;7.10;3.10;;;;;;;6.10;71.97;99741.69;105942;1254;96502;-76
2024/02/14 10:11:32;;;;;;;4.80;2.10;;;;;;;6.07;71.55;99740.72;106167;1255;109735;-75
2024/02/14 10:14:02;;;;;;;4.60;2.40;;;;;;;5.96;70.50;99739.79;106663;1255;96590;-75
2024/02/14 10:16:32;;;;;;;2.50;1.90;;;;;;;5.94;70.28;99742.17;105542;1256;106880;-75
2024/02/14 10:19:00;;;;;;;2.90;1.90;;;;;;;5.89;69.75;99742.20;106842;1253;96612;-75
2024/02/14 10:21:31;;;;;;;3.70;2.00;;;;;;;5.89;70.05;99741.46;105688;1255;96601;-76
2024/02/14 10:24:00;;;;;;;5.90;2.90;;;;;;;5.95;70.28;99737.88;105443;1255;108995;-76
2024/02/14 10:26:29;;;;;;;4.90;2.70;;;;;;;6.01;70.16;99737.66;105719;1257;96668;-75
2024/02/14 10:28:58;;;;;;;8.20;2.60;;;;;;;6.07;70.54;99739.33;105736;1259;105982;-75
2024/02/14 10:31:26;;;;;;;3.90;2.40;;;;;;;6.10;70.11;99738.50;105947;1256;96590;-75
2024/02/14 10:33:56;;;;;;;6.30;2.50;;;;;;;6.12;70.35;99739.11;106351;1253;96536;-76
2024/02/14 10:36:25;;;;;;;9.00;2.70;;;;;;;6.11;69.84;99737.03;106328;1255;108469;-76
2024/02/14 10:38:54;;;;;;;8.90;3.50;;;;;;;6.16;69.93;99731.54;106252;1255;96591;-76
2024/02/14 10:41:22;;;;;;;4.90;2.40;;;;;;;6.23;69.90;99730.55;105688;1258;107250;-74
2024/02/14 10:43:50;;;;;;;6.00;3.90;;;;;;;6.22;69.46;99731.65;107152;1254;96673;-75
2024/02/14 10:46:25;;;;;;;4.60;2.80;;;;;;;6.23;69.44;99733.02;106566;1255;97533;-76
2024/02/14 10:48:58;;;;;;;5.20;2.60;;;;;;;6.24;69.43;99737.02;105785;1255;109915;-75
2024/02/14 10:51:30;;;;;;;5.10;2.50;;;;;;;6.23;68.86;99731.05;108534;1252;95808;-76
2024/02/14 10:54:00;;;;;;;28.90;11.80;;;;;;;6.22;68.96;99729.01;107881;1253;107072;-75
2024/02/14 10:56:32;;;;;;;13.30;5.00;;;;;;;6.24;69.12;99729.60;106086;1255;96603;-75
2024/02/14 10:59:02;;;;;;;7.20;3.20;;;;;;;6.29;68.98;99730.27;105652;1254;97185;-76
2024/02/14 11:03:35;;;;;;;5.60;2.60;;;;;;;6.39;68.70;99729.28;101986;1293;636701;-74
2024/02/14 11:06:03;;;;;;;8.50;3.40;;;;;;;6.38;68.73;99726.52;105253;1268;94398;-75
2024/02/14 11:08:35;;;;;;;5.10;2.60;;;;;;;6.38;68.60;99720.52;106072;1266;94339;-75
2024/02/14 11:11:06;;;;;;;8.30;3.70;;;;;;;6.39;68.26;99721.58;104813;1268;107334;-75
2024/02/14 11:13:35;;;;;;;5.60;2.50;;;;;;;6.40;68.55;99719.73;104687;1267;95509;-75
2024/02/14 11:16:07;;;;;;;3.60;2.40;;;;;;;6.41;68.66;99719.52;105087;1272;113338;-75
2024/02/14 11:18:35;;;;;;;4.00;2.10;;;;;;;6.43;68.34;99717.52;106511;1266;94382;-75
2024/02/14 11:21:04;;;;;;;6.30;2.60;;;;;;;6.46;68.22;99711.90;105037;1268;94315;-74
2024/02/14 11:23:33;;;;;;;4.40;2.00;;;;;;;6.52;68.26;99709.55;106274;1266;105427;-74
2024/02/14 11:26:02;;;;;;;5.70;2.20;;;;;;;6.51;68.30;99706.73;105192;1263;95476;-75
2024/02/14 11:28:31;;;;;;;9.00;2.80;;;;;;;6.49;67.67;99708.27;104772;1263;107251;-75
2024/02/14 11:31:03;;;;;;;8.80;3.50;;;;;;;6.50;67.88;99709.25;105675;1260;95254;-75
2024/02/14 11:33:31;;;;;;;9.20;3.90;;;;;;;6.52;67.66;99706.32;105642;1260;95218;-75